Time;durP1;ratioP1;P1;durP2;ratioP2;P2;SDS_P1;SDS_P2;PMS_P1;PMS_P2;Temp;Humidity;BMP_temperature;BMP_pressure;BME280_temperature;BME280_humidity;BME280_pressure;Samples;Min_cycle;Max_cycle;Signal;HPM_P1;HPM_P2
2023/06/27 00:02:23;;;;;;;3.20;1.50;;;16.40;99.90;;;;;;5035583;28;20181;-83
2023/06/27 00:04:49;;;;;;;1.53;1.43;;;16.30;99.90;;;;;;5035082;28;20197;-82
2023/06/27 00:07:14;;;;;;;1.47;1.27;;;16.40;99.90;;;;;;5036285;28;20260;-82
2023/06/27 00:09:40;;;;;;;1.73;1.47;;;16.40;99.90;;;;;;5035166;28;20177;-82
2023/06/27 00:12:07;;;;;;;2.10;1.70;;;16.30;1.00;;;;;;5053510;28;20261;-82
2023/06/27 00:14:36;;;;;;;2.20;1.47;;;16.20;1.00;;;;;;5035174;28;20299;-82
2023/06/27 00:17:12;;;;;;;2.67;1.53;;;16.10;1.00;;;;;;5035476;28;20194;-82
2023/06/27 00:19:38;;;;;;;6.50;2.13;;;15.90;1.00;;;;;;5052781;28;20177;-80
2023/06/27 00:22:09;;;;;;;1.83;1.50;;;15.90;1.00;;;;;;5035192;28;20235;-82
2023/06/27 00:24:38;;;;;;;1.70;1.40;;;15.90;90.20;;;;;;5052833;28;20200;-82
2023/06/27 00:27:04;;;;;;;2.70;1.47;;;15.90;55.60;;;;;;5052937;28;20205;-82
2023/06/27 00:29:32;;;;;;;2.27;1.40;;;15.80;1.00;;;;;;5035035;28;20230;-82
2023/06/27 00:31:57;;;;;;;2.87;1.43;;;15.80;86.10;;;;;;5034893;28;20166;-82
2023/06/27 00:34:23;;;;;;;1.53;1.23;;;15.80;1.00;;;;;;5035193;28;20360;-82
2023/06/27 00:36:48;;;;;;;1.80;1.37;;;15.80;1.00;;;;;;5034897;28;20255;-82
2023/06/27 00:39:14;;;;;;;2.03;1.50;;;15.70;1.00;;;;;;5034982;28;20173;-81
2023/06/27 00:41:40;;;;;;;2.30;1.63;;;15.80;1.00;;;;;;5034366;28;20169;-82
2023/06/27 00:44:08;;;;;;;2.40;1.40;;;15.70;1.00;;;;;;5034677;28;20197;-82
2023/06/27 00:46:39;;;;;;;3.37;1.40;;;15.70;52.90;;;;;;5052473;28;20195;-82
2023/06/27 00:49:08;;;;;;;1.80;1.60;;;15.80;1.00;;;;;;5052220;28;20161;-80
2023/06/27 00:51:33;;;;;;;1.47;1.30;;;15.80;1.00;;;;;;5035158;28;20173;-81
2023/06/27 00:53:59;;;;;;;2.23;1.40;;;15.80;1.00;;;;;;5052406;28;20212;-81
2023/06/27 00:56:26;;;;;;;2.07;1.40;;;15.80;1.00;;;;;;5035270;28;20225;-81
2023/06/27 00:58:57;;;;;;;2.03;1.37;;;15.90;22.00;;;;;;5035074;28;20200;-81
2023/06/27 01:01:23;;;;;;;4.37;1.40;;;15.70;1.00;;;;;;5034697;28;20178;-81
2023/06/27 01:03:48;;;;;;;1.97;1.43;;;15.50;99.90;;;;;;5052965;28;20255;-81
2023/06/27 01:06:37;;;;;;;2.60;1.60;;;15.30;1.00;;;;;;5052491;28;20202;-81
2023/06/27 01:09:13;;;;;;;2.07;1.40;;;15.20;16.40;;;;;;5046054;28;20185;-81
2023/06/27 01:11:46;;;;;;;2.03;1.23;;;15.20;1.00;;;;;;5052050;28;20160;-81
2023/06/27 01:14:16;;;;;;;1.97;1.40;;;15.20;1.00;;;;;;5034258;28;20181;-81
2023/06/27 01:16:45;;;;;;;2.73;1.33;;;15.20;1.00;;;;;;5051885;28;20206;-81
2023/06/27 01:19:12;;;;;;;1.60;1.50;;;15.20;1.00;;;;;;5052203;28;20179;-82
2023/06/27 01:21:39;;;;;;;3.20;1.50;;;15.20;1.00;;;;;;5033625;28;20181;-81
2023/06/27 01:24:07;;;;;;;2.13;1.27;;;15.10;1.00;;;;;;5033833;28;20197;-81
2023/06/27 01:26:33;;;;;;;1.87;1.47;;;15.00;1.00;;;;;;5034025;28;20189;-81
2023/06/27 01:28:59;;;;;;;2.43;1.60;;;15.00;99.90;;;;;;5034101;28;20177;-82
2023/06/27 01:31:27;;;;;;;3.00;1.60;;;14.90;1.00;;;;;;5033694;28;20169;-81
2023/06/27 01:34:10;;;;;;;1.60;1.50;;;15.00;1.00;;;;;;5036098;28;20181;-81
2023/06/27 01:36:58;;;;;;;2.73;1.60;;;15.00;40.50;;;;;;5037133;28;20201;-81
2023/06/27 01:39:38;;;;;;;2.67;1.60;;;15.00;98.20;;;;;;5055108;28;20178;-81
2023/06/27 01:42:12;;;;;;;1.90;1.53;;;14.90;99.90;;;;;;5037360;28;20173;-81
2023/06/27 01:44:39;;;;;;;1.70;1.43;;;14.80;99.90;;;;;;5037285;28;20254;-81
2023/06/27 01:47:06;;;;;;;2.73;1.37;;;14.90;1.00;;;;;;5055040;28;20292;-81
2023/06/27 01:49:32;;;;;;;1.97;1.43;;;14.80;16.20;;;;;;5036842;28;20264;-82
2023/06/27 01:51:58;;;;;;;2.47;1.50;;;14.70;99.90;;;;;;5054787;28;20177;-81
2023/06/27 01:54:24;;;;;;;3.93;1.60;;;14.70;99.90;;;;;;5054784;28;20173;-81
2023/06/27 01:56:49;;;;;;;2.10;1.40;;;14.60;1.00;;;;;;5036730;28;20197;-81
2023/06/27 01:59:15;;;;;;;2.50;1.37;;;14.70;1.00;;;;;;5036977;28;20268;-82
2023/06/27 02:01:40;;;;;;;1.90;1.30;;;14.60;1.00;;;;;;5054451;28;20178;-81
2023/06/27 02:04:06;;;;;;;2.07;1.30;;;14.70;1.00;;;;;;5037082;28;20201;-81
2023/06/27 02:06:32;;;;;;;2.27;1.50;;;14.50;1.00;;;;;;5001042;28;1040177;-81
2023/06/27 02:08:57;;;;;;;2.07;1.57;;;14.50;99.90;;;;;;5056059;28;20327;-81
2023/06/27 02:11:23;;;;;;;1.60;1.50;;;14.60;1.00;;;;;;5038198;28;20177;-82
2023/06/27 02:13:48;;;;;;;1.80;1.47;;;14.70;1.00;;;;;;5055739;28;20236;-81
2023/06/27 02:16:14;;;;;;;2.03;1.70;;;14.70;1.00;;;;;;5037845;28;20197;-81
2023/06/27 02:18:39;;;;;;;2.10;1.40;;;14.70;1.00;;;;;;5055873;28;20645;-82
2023/06/27 02:21:05;;;;;;;3.67;1.50;;;14.70;1.00;;;;;;5038002;28;20178;-81
2023/06/27 02:23:31;;;;;;;4.20;1.60;;;14.60;1.00;;;;;;5055584;28;20221;-81
2023/06/27 02:25:56;;;;;;;2.50;1.40;;;14.60;33.70;;;;;;5037933;28;20255;-81
2023/06/27 02:28:22;;;;;;;2.07;1.50;;;14.60;99.90;;;;;;5055485;28;20170;-81
2023/06/27 02:30:48;;;;;;;1.73;1.40;;;14.60;1.00;;;;;;5037509;28;20170;-81
2023/06/27 02:33:13;;;;;;;1.93;1.47;;;14.60;99.90;;;;;;5037346;28;20186;-81
2023/06/27 02:35:39;;;;;;;1.70;1.40;;;14.60;99.90;;;;;;5037722;28;20193;-81
2023/06/27 02:38:05;;;;;;;1.67;1.40;;;14.50;99.90;;;;;;5037513;28;20181;-81
2023/06/27 02:40:30;;;;;;;2.33;1.47;;;14.60;1.00;;;;;;5036774;28;20174;-82
2023/06/27 02:42:56;;;;;;;1.50;1.30;;;14.50;1.00;;;;;;5054815;28;20182;-82
2023/06/27 02:45:21;;;;;;;1.70;1.50;;;14.60;1.00;;;;;;5036955;28;20194;-82
2023/06/27 02:47:47;;;;;;;1.83;1.57;;;14.60;99.90;;;;;;5036879;28;20705;-82
2023/06/27 02:50:12;;;;;;;1.90;1.50;;;14.50;1.00;;;;;;5036374;28;20196;-82
2023/06/27 02:52:38;;;;;;;2.17;1.40;;;14.40;99.90;;;;;;5054324;28;20774;-82
2023/06/27 02:55:04;;;;;;;1.50;1.33;;;14.40;14.80;;;;;;5054196;28;20588;-82
2023/06/27 02:57:30;;;;;;;2.53;1.50;;;14.40;1.00;;;;;;5054334;28;20598;-82
2023/06/27 02:59:55;;;;;;;2.87;1.67;;;14.40;1.00;;;;;;5054160;28;20173;-81
2023/06/27 03:02:21;;;;;;;1.90;1.60;;;14.40;1.00;;;;;;5036626;28;20274;-81
2023/06/27 03:04:47;;;;;;;1.60;1.50;;;14.30;88.90;;;;;;5036494;28;20212;-81
2023/06/27 03:07:14;;;;;;;2.10;1.60;;;14.30;1.00;;;;;;5054214;28;20221;-81
2023/06/27 03:09:39;;;;;;;2.30;1.40;;;14.30;1.00;;;;;;5036312;28;20184;-82
2023/06/27 03:12:05;;;;;;;2.00;1.50;;;14.40;99.90;;;;;;5054613;28;20573;-82
2023/06/27 03:14:31;;;;;;;1.97;1.50;;;14.40;99.90;;;;;;5053781;28;20178;-82
2023/06/27 03:16:56;;;;;;;1.73;1.40;;;14.30;99.90;;;;;;5036365;28;20297;-82
2023/06/27 03:19:22;;;;;;;2.10;1.80;;;14.30;99.90;;;;;;5054155;28;20181;-82
2023/06/27 03:21:47;;;;;;;2.17;1.63;;;14.30;1.00;;;;;;5053993;28;20233;-81
2023/06/27 03:24:13;;;;;;;1.60;1.37;;;14.30;1.00;;;;;;5036284;28;20201;-82
2023/06/27 03:26:39;;;;;;;1.57;1.40;;;14.30;1.00;;;;;;5036178;28;20200;-81
2023/06/27 03:29:04;;;;;;;1.60;1.40;;;14.30;1.00;;;;;;5053749;28;20174;-82
2023/06/27 03:31:30;;;;;;;2.00;1.43;;;14.30;99.90;;;;;;5035805;28;20655;-81
2023/06/27 03:33:57;;;;;;;1.83;1.43;;;14.30;6.80;;;;;;5053919;28;20553;-82
2023/06/27 03:36:24;;;;;;;1.93;1.50;;;14.20;1.00;;;;;;5053938;28;20236;-81
2023/06/27 03:38:50;;;;;;;2.30;1.50;;;14.20;1.00;;;;;;5053493;28;20541;-82
2023/06/27 03:41:16;;;;;;;1.80;1.40;;;14.20;99.90;;;;;;5035300;28;20174;-81
2023/06/27 03:43:42;;;;;;;2.00;1.53;;;14.10;1.00;;;;;;5053757;28;20212;-83
2023/06/27 03:46:12;;;;;;;1.43;1.33;;;14.20;1.00;;;;;;5053510;28;20193;-81
2023/06/27 03:48:37;;;;;;;3.37;1.63;;;14.20;1.00;;;;;;5053631;28;20181;-81
2023/06/27 03:51:03;;;;;;;2.37;1.53;;;14.30;1.00;;;;;;5035507;28;20207;-81
2023/06/27 03:53:29;;;;;;;2.33;1.40;;;14.40;1.00;;;;;;5035603;28;20177;-82
2023/06/27 03:55:54;;;;;;;1.50;1.40;;;14.40;92.70;;;;;;5052705;28;20201;-82
2023/06/27 03:58:20;;;;;;;2.53;1.50;;;14.30;99.90;;;;;;5053526;28;20633;-81
2023/06/27 04:00:46;;;;;;;2.43;1.50;;;14.30;99.90;;;;;;5053690;28;20177;-81
2023/06/27 04:03:11;;;;;;;2.40;1.80;;;14.20;1.00;;;;;;5035389;28;20267;-82
2023/06/27 04:05:37;;;;;;;2.33;1.50;;;14.20;99.90;;;;;;5035470;28;20576;-82
2023/06/27 04:08:02;;;;;;;2.20;1.57;;;14.10;21.10;;;;;;5053103;28;20271;-82
2023/06/27 04:10:28;;;;;;;5.10;1.40;;;14.10;99.90;;;;;;5052928;28;20200;-81
2023/06/27 04:12:54;;;;;;;3.10;1.70;;;14.10;1.00;;;;;;5035535;28;20180;-82
2023/06/27 04:15:19;;;;;;;1.90;1.50;;;14.10;1.00;;;;;;5053066;28;20185;-82
2023/06/27 04:17:45;;;;;;;2.73;1.60;;;14.20;1.00;;;;;;5035241;28;20177;-81
2023/06/27 04:20:12;;;;;;;2.30;1.70;;;14.20;1.00;;;;;;5052940;28;20208;-82
2023/06/27 04:22:38;;;;;;;1.77;1.47;;;14.30;1.00;;;;;;5052864;28;20173;-82
2023/06/27 04:25:04;;;;;;;2.03;1.50;;;14.30;99.90;;;;;;5052649;28;20219;-81
2023/06/27 04:27:29;;;;;;;1.67;1.33;;;14.30;99.90;;;;;;5035210;28;20180;-82
2023/06/27 04:29:56;;;;;;;2.00;1.53;;;14.30;1.00;;;;;;5034362;28;20178;-82
2023/06/27 04:32:22;;;;;;;1.97;1.40;;;14.30;1.00;;;;;;5052614;28;20166;-81
2023/06/27 04:34:48;;;;;;;2.83;1.57;;;14.30;99.90;;;;;;5052552;28;20577;-81
2023/06/27 04:37:18;;;;;;;1.50;1.40;;;14.20;99.90;;;;;;5034723;28;20194;-82
2023/06/27 04:39:43;;;;;;;2.87;1.67;;;14.30;1.00;;;;;;5034307;28;20201;-82
2023/06/27 04:42:09;;;;;;;3.27;1.50;;;14.30;1.00;;;;;;5034875;28;20259;-82
2023/06/27 04:44:35;;;;;;;2.43;1.50;;;14.50;99.90;;;;;;5052444;28;20699;-81
2023/06/27 04:47:01;;;;;;;2.37;1.63;;;14.60;99.90;;;;;;5053004;28;20192;-79
2023/06/27 04:49:26;;;;;;;2.23;1.30;;;14.90;1.00;;;;;;5053273;28;20593;-80
2023/06/27 04:51:52;;;;;;;3.20;1.40;;;15.60;1.00;;;;;;5053064;28;20194;-80
2023/06/27 04:54:17;;;;;;;1.50;1.40;;;16.00;1.00;;;;;;5052998;28;20581;-80
2023/06/27 04:56:43;;;;;;;2.93;1.20;;;16.40;99.90;;;;;;5053060;28;20197;-80
2023/06/27 04:59:09;;;;;;;1.63;1.37;;;17.00;99.90;;;;;;5053100;28;20181;-81
2023/06/27 05:01:35;;;;;;;1.37;1.20;;;17.30;1.00;;;;;;5035077;28;20264;-80
2023/06/27 05:04:04;;;;;;;1.67;1.40;;;17.50;1.00;;;;;;5035141;28;20213;-79
2023/06/27 05:06:31;;;;;;;2.07;1.53;;;17.70;1.00;;;;;;5035958;28;20695;-81
2023/06/27 05:08:56;;;;;;;2.37;1.67;;;17.30;99.90;;;;;;5053300;28;20252;-80
2023/06/27 05:11:22;;;;;;;3.67;1.67;;;17.20;1.00;;;;;;5036015;28;20201;-80
2023/06/27 05:13:47;;;;;;;2.10;1.30;;;17.70;1.00;;;;;;5053901;28;20184;-81
2023/06/27 05:16:13;;;;;;;1.73;1.40;;;17.80;1.00;;;;;;5035881;28;20193;-80
2023/06/27 05:18:38;;;;;;;3.17;1.50;;;18.00;1.00;;;;;;5037017;28;20706;-80
2023/06/27 05:21:04;;;;;;;3.23;1.40;;;18.30;99.90;;;;;;5053931;28;20664;-81
2023/06/27 05:23:30;;;;;;;3.23;1.70;;;18.40;10.00;;;;;;5053756;28;20237;-79
2023/06/27 05:25:55;;;;;;;1.73;1.47;;;18.50;1.00;;;;;;5036342;28;20225;-81
2023/06/27 05:28:21;;;;;;;6.13;1.70;;;18.30;1.00;;;;;;5036265;28;20166;-81
2023/06/27 05:30:46;;;;;;;3.07;1.70;;;18.30;1.00;;;;;;5036079;28;20252;-82
2023/06/27 05:33:12;;;;;;;4.73;1.80;;;18.10;1.00;;;;;;5035923;28;20173;-79
2023/06/27 05:35:37;;;;;;;2.17;1.60;;;18.10;1.00;;;;;;5035125;28;20746;-80
2023/06/27 05:38:04;;;;;;;2.93;1.67;;;18.70;99.90;;;;;;5035935;28;20170;-79
2023/06/27 05:40:29;;;;;;;2.00;1.60;;;19.10;36.60;;;;;;5035652;28;20208;-77
2023/06/27 05:42:55;;;;;;;7.10;2.17;;;19.30;99.90;;;;;;5035311;28;20205;-80
2023/06/27 05:45:20;;;;;;;2.20;1.70;;;19.30;1.00;;;;;;5035753;28;20213;-80
2023/06/27 05:47:46;;;;;;;2.00;1.67;;;19.00;1.00;;;;;;5036443;28;20718;-80
2023/06/27 05:50:11;;;;;;;2.00;1.77;;;19.10;1.00;;;;;;5054239;28;20252;-81
2023/06/27 05:52:37;;;;;;;3.23;1.90;;;18.40;99.90;;;;;;5054265;28;20174;-81
2023/06/27 05:55:03;;;;;;;3.10;1.80;;;18.40;1.00;;;;;;5053837;28;20178;-78
2023/06/27 05:57:28;;;;;;;2.43;2.00;;;18.50;99.90;;;;;;5053323;28;20170;-78
2023/06/27 05:59:54;;;;;;;3.67;1.80;;;17.90;99.90;;;;;;5036540;28;20170;-80
2023/06/27 06:02:19;;;;;;;1.93;1.67;;;17.40;1.00;;;;;;5037636;28;20216;-80
2023/06/27 06:04:45;;;;;;;2.00;1.60;;;17.80;99.90;;;;;;5055576;28;20197;-80
2023/06/27 06:07:11;;;;;;;2.40;1.90;;;18.40;1.00;;;;;;5057883;28;20268;-80
2023/06/27 06:09:37;;;;;;;4.77;2.13;;;18.60;99.90;;;;;;5038636;28;20176;-79
2023/06/27 06:12:03;;;;;;;3.23;2.10;;;18.30;7.40;;;;;;5039753;28;20173;-80
2023/06/27 06:14:28;;;;;;;3.87;1.63;;;18.00;1.00;;;;;;5039127;28;20174;-80
2023/06/27 06:16:54;;;;;;;2.73;2.00;;;18.10;1.00;;;;;;5056652;28;20193;-79
2023/06/27 06:19:19;;;;;;;3.70;1.90;;;17.70;99.90;;;;;;5058606;28;20181;-80
2023/06/27 06:21:45;;;;;;;2.20;1.70;;;17.60;99.90;;;;;;5042075;28;20261;-79
2023/06/27 06:24:11;;;;;;;3.23;1.70;;;17.50;99.90;;;;;;5060376;28;20284;-80
2023/06/27 06:26:37;;;;;;;3.30;1.83;;;17.60;99.90;;;;;;5060705;28;20186;-80
2023/06/27 06:29:03;;;;;;;2.83;1.73;;;17.90;99.90;;;;;;5042491;28;20291;-80
2023/06/27 06:31:29;;;;;;;2.80;1.80;;;17.60;99.90;;;;;;5060430;28;20170;-80
2023/06/27 06:33:56;;;;;;;2.53;1.90;;;17.90;99.90;;;;;;5042049;28;20648;-80
2023/06/27 06:36:25;;;;;;;2.70;1.80;;;17.80;58.30;;;;;;5060116;28;20186;-79
2023/06/27 06:38:50;;;;;;;4.67;1.90;;;17.80;1.00;;;;;;5060216;28;20170;-80
2023/06/27 06:41:18;;;;;;;2.80;1.80;;;17.90;99.90;;;;;;5059741;28;20182;-80
2023/06/27 06:43:43;;;;;;;2.50;1.63;;;18.10;99.90;;;;;;5041265;28;20311;-81
2023/06/27 06:46:09;;;;;;;5.27;1.97;;;17.90;1.00;;;;;;5041307;28;20321;-79
2023/06/27 06:48:35;;;;;;;2.57;1.80;;;17.80;20.80;;;;;;5059004;28;20593;-79
2023/06/27 06:51:01;;;;;;;2.93;1.80;;;17.70;1.00;;;;;;5041152;28;20200;-80
2023/06/27 06:53:27;;;;;;;3.57;2.30;;;17.90;1.00;;;;;;5059446;28;20180;-80
2023/06/27 06:55:52;;;;;;;1.97;1.70;;;17.70;1.00;;;;;;5041818;28;20292;-80
2023/06/27 06:58:18;;;;;;;2.77;1.70;;;18.30;1.00;;;;;;5058344;28;20182;-78
2023/06/27 07:00:43;;;;;;;2.90;1.80;;;18.40;1.00;;;;;;5035614;28;20628;-78
2023/06/27 07:03:09;;;;;;;3.90;2.07;;;18.60;1.00;;;;;;5054707;28;20558;-79
2023/06/27 07:05:36;;;;;;;3.00;1.93;;;18.50;1.00;;;;;;5037896;28;20205;-76
2023/06/27 07:08:05;;;;;;;2.00;1.80;;;18.50;1.00;;;;;;5055466;28;20237;-77
2023/06/27 07:10:31;;;;;;;2.80;1.50;;;18.10;1.00;;;;;;5037265;28;20181;-80
2023/06/27 07:12:57;;;;;;;3.40;1.90;;;18.50;99.90;;;;;;5055187;28;20257;-78
2023/06/27 07:15:23;;;;;;;3.43;1.83;;;18.70;99.90;;;;;;5036606;28;20201;-79
2023/06/27 07:17:50;;;;;;;2.17;1.70;;;18.30;1.00;;;;;;5036760;28;20178;-79
2023/06/27 07:20:16;;;;;;;2.83;1.70;;;18.20;1.00;;;;;;5053885;28;20182;-78
2023/06/27 07:22:42;;;;;;;2.73;1.73;;;18.10;1.00;;;;;;5036841;28;20245;-78
2023/06/27 07:25:08;;;;;;;3.37;1.60;;;18.20;1.00;;;;;;5036522;28;20209;-78
2023/06/27 07:27:33;;;;;;;3.07;1.80;;;18.20;1.00;;;;;;5036968;28;20178;-78
2023/06/27 07:29:59;;;;;;;3.13;1.90;;;18.20;1.00;;;;;;5035909;28;20169;-79
2023/06/27 07:32:24;;;;;;;2.53;1.90;;;18.30;1.00;;;;;;5035517;28;20638;-78
2023/06/27 07:34:50;;;;;;;3.97;1.80;;;18.40;1.00;;;;;;5053048;28;20221;-78
2023/06/27 07:37:15;;;;;;;4.57;1.93;;;18.50;99.90;;;;;;5053274;28;20202;-79
2023/06/27 07:39:41;;;;;;;7.50;3.23;;;18.50;1.00;;;;;;5035547;28;20181;-76
2023/06/27 07:42:07;;;;;;;4.27;1.63;;;18.80;1.00;;;;;;5054792;28;20618;-79
2023/06/27 07:44:34;;;;;;;2.63;1.40;;;19.00;99.90;;;;;;5053816;28;20232;-79
2023/06/27 07:46:59;;;;;;;3.63;1.70;;;19.10;99.90;;;;;;5053440;28;20194;-79
2023/06/27 07:49:25;;;;;;;4.40;1.57;;;19.20;99.90;;;;;;5053677;28;20173;-79
2023/06/27 07:51:51;;;;;;;4.20;1.60;;;19.10;99.90;;;;;;5035538;28;20185;-78
2023/06/27 07:54:19;;;;;;;2.03;1.70;;;19.00;99.90;;;;;;5053224;28;20189;-78
2023/06/27 07:56:45;;;;;;;2.43;1.70;;;19.00;1.00;;;;;;5035089;28;20290;-78
2023/06/27 07:59:12;;;;;;;2.87;1.67;;;19.10;99.90;;;;;;5035322;28;20209;-78
2023/06/27 08:01:40;;;;;;;3.90;1.90;;;19.30;99.90;;;;;;5053264;28;20203;-79
2023/06/27 08:04:06;;;;;;;3.33;1.80;;;19.40;99.90;;;;;;5035007;28;20204;-79
2023/06/27 08:06:31;;;;;;;4.40;2.10;;;19.50;99.90;;;;;;5035335;28;20210;-78
2023/06/27 08:08:58;;;;;;;2.30;1.77;;;19.60;99.90;;;;;;5035160;28;20180;-79
2023/06/27 08:11:23;;;;;;;3.60;1.80;;;19.50;99.90;;;;;;5052656;28;20177;-78
2023/06/27 08:13:49;;;;;;;5.23;1.90;;;19.60;99.90;;;;;;5051904;28;20270;-78
2023/06/27 08:16:15;;;;;;;4.80;1.70;;;19.90;99.90;;;;;;5052544;28;20239;-78
2023/06/27 08:18:40;;;;;;;2.80;1.77;;;20.20;99.90;;;;;;5034852;28;20178;-78
2023/06/27 08:21:06;;;;;;;4.63;1.47;;;20.30;1.00;;;;;;5034873;28;20173;-78
2023/06/27 08:23:31;;;;;;;3.60;1.58;;;20.20;1.00;;;;;;5034900;28;20206;-78
2023/06/27 08:25:57;;;;;;;1.60;1.50;;;20.10;1.00;;;;;;5034487;28;20280;-78
2023/06/27 08:28:22;;;;;;;2.13;1.45;;;20.10;1.00;;;;;;5034740;28;20243;-78
2023/06/27 08:30:48;;;;;;;2.67;1.60;;;20.20;99.90;;;;;;5034806;28;20185;-77
2023/06/27 08:33:14;;;;;;;4.25;1.80;;;20.40;1.00;;;;;;5052869;28;20189;-78
2023/06/27 08:35:39;;;;;;;4.82;1.60;;;20.20;1.00;;;;;;5036093;28;20209;-79
2023/06/27 08:38:05;;;;;;;3.30;1.60;;;20.10;1.00;;;;;;5054299;28;20237;-79
2023/06/27 08:40:35;;;;;;;2.53;1.53;;;20.30;1.00;;;;;;5053616;28;20170;-77
2023/06/27 08:43:01;;;;;;;4.17;1.50;;;20.30;1.00;;;;;;5037461;28;20550;-79
2023/06/27 08:45:27;;;;;;;2.58;1.67;;;20.60;1.00;;;;;;5036027;28;20209;-79
2023/06/27 08:47:53;;;;;;;2.25;1.40;;;20.80;1.00;;;;;;5053836;28;20548;-79
2023/06/27 08:50:21;;;;;;;1.60;1.45;;;20.90;1.00;;;;;;5035854;28;20173;-79
2023/06/27 08:52:57;;;;;;;1.95;1.40;;;20.80;1.00;;;;;;5053302;28;20176;-79
2023/06/27 08:55:25;;;;;;;4.07;1.50;;;20.80;1.00;;;;;;5053872;28;20197;-79
2023/06/27 08:57:53;;;;;;;2.70;1.70;;;20.90;1.00;;;;;;5054298;28;20181;-80
2023/06/27 09:00:22;;;;;;;2.70;1.33;;;21.20;1.00;;;;;;5053687;28;20169;-79
2023/06/27 09:02:48;;;;;;;3.60;1.50;;;21.70;1.00;;;;;;5054817;28;20174;-80
2023/06/27 09:05:15;;;;;;;2.92;1.65;;;21.90;99.90;;;;;;5053453;28;20204;-79
2023/06/27 09:07:41;;;;;;;1.60;1.50;;;21.90;99.90;;;;;;5035958;28;20189;-79
2023/06/27 09:10:08;;;;;;;2.25;1.35;;;21.30;99.90;;;;;;5035547;28;20209;-79
2023/06/27 09:12:34;;;;;;;4.13;1.63;;;21.10;1.00;;;;;;5053333;28;20173;-79
2023/06/27 09:15:00;;;;;;;2.53;1.50;;;20.90;1.00;;;;;;5053514;28;20169;-79
2023/06/27 09:17:25;;;;;;;2.63;1.48;;;21.00;1.00;;;;;;5053453;28;20185;-79
2023/06/27 09:19:51;;;;;;;2.70;1.42;;;21.20;1.00;;;;;;5035981;28;20228;-78
2023/06/27 09:22:19;;;;;;;2.00;1.20;;;21.50;1.00;;;;;;5053856;28;20181;-79
2023/06/27 09:24:46;;;;;;;3.85;1.42;;;21.50;99.90;;;;;;5054130;28;20201;-79
2023/06/27 09:27:31;;;;;;;1.80;1.42;;;21.60;99.90;;;;;;5036349;28;20193;-79
2023/06/27 09:30:07;;;;;;;3.13;1.50;;;21.60;99.90;;;;;;5036460;28;20166;-80
2023/06/27 09:32:50;;;;;;;3.20;1.30;;;21.70;99.90;;;;;;5036111;28;20201;-79
2023/06/27 09:35:16;;;;;;;2.78;1.45;;;22.00;99.90;;;;;;5035582;28;20173;-80
2023/06/27 09:37:41;;;;;;;3.03;1.50;;;21.70;99.90;;;;;;5036209;28;20177;-80
2023/06/27 09:40:37;;;;;;;2.53;1.38;;;22.00;99.90;;;;;;5036655;28;20177;-79
2023/06/27 09:43:05;;;;;;;2.17;1.67;;;22.20;99.90;;;;;;5008781;28;20185;-80
2023/06/27 09:45:31;;;;;;;3.25;1.60;;;22.10;99.90;;;;;;5034429;28;20210;-82
2023/06/27 09:47:57;;;;;;;3.05;1.52;;;22.00;99.90;;;;;;5034326;28;20178;-77
2023/06/27 09:50:31;;;;;;;4.28;1.58;;;22.10;99.90;;;;;;5016101;28;20181;-79
2023/06/27 09:53:02;;;;;;;1.40;1.30;;;22.20;99.90;;;;;;5034469;28;20178;-80
2023/06/27 09:55:28;;;;;;;3.30;1.60;;;22.20;99.90;;;;;;5019691;28;20202;-79
2023/06/27 09:57:54;;;;;;;2.13;1.38;;;22.50;99.90;;;;;;5020332;28;20679;-78
2023/06/27 10:00:22;;;;;;;4.30;1.83;;;22.50;99.90;;;;;;5019872;28;20174;-79
2023/06/27 10:02:48;;;;;;;2.75;1.60;;;22.40;99.90;;;;;;5037738;28;20236;-79
2023/06/27 10:05:15;;;;;;;2.55;2.05;;;22.70;99.90;;;;;;5037408;28;20201;-79
2023/06/27 10:07:42;;;;;;;1.88;1.20;;;22.70;99.90;;;;;;5020047;28;20273;-79
2023/06/27 10:10:08;;;;;;;2.72;2.15;;;22.50;99.90;;;;;;5037171;28;20181;-80
2023/06/27 10:12:34;;;;;;;2.17;1.40;;;22.50;99.90;;;;;;5019886;28;20665;-79
2023/06/27 10:14:59;;;;;;;2.97;1.48;;;22.40;99.90;;;;;;5037011;28;20170;-79
2023/06/27 10:17:28;;;;;;;1.90;1.30;;;22.40;99.90;;;;;;5020134;28;20614;-80
2023/06/27 10:19:54;;;;;;;2.53;1.30;;;22.40;99.90;;;;;;5036975;28;20560;-79
2023/06/27 10:22:21;;;;;;;1.85;1.30;;;22.50;99.90;;;;;;5019763;28;20174;-79
2023/06/27 10:24:51;;;;;;;1.58;1.10;;;22.90;99.90;;;;;;5020434;28;20216;-79
2023/06/27 10:27:25;;;;;;;3.08;1.42;;;23.20;99.90;;;;;;5038272;28;20254;-79
2023/06/27 10:29:50;;;;;;;2.28;1.50;;;23.20;99.90;;;;;;5020287;28;20171;-80
2023/06/27 10:32:18;;;;;;;2.08;1.30;;;23.40;99.90;;;;;;5019488;28;20166;-78
2023/06/27 10:34:44;;;;;;;1.42;1.20;;;23.20;99.90;;;;;;5019783;28;20266;-79
2023/06/27 10:37:19;;;;;;;1.45;1.30;;;23.00;99.90;;;;;;5018510;28;20210;-79
2023/06/27 10:40:00;;;;;;;3.17;1.30;;;22.80;99.90;;;;;;5036783;28;20197;-79
2023/06/27 10:42:28;;;;;;;7.68;1.55;;;22.40;99.90;;;;;;5019065;28;20281;-79
2023/06/27 10:44:59;;;;;;;1.55;1.30;;;22.40;99.90;;;;;;5036355;28;20194;-79
2023/06/27 10:47:34;;;;;;;1.98;1.27;;;22.40;99.90;;;;;;5018952;28;20178;-77
2023/06/27 10:50:13;;;;;;;2.10;1.35;;;22.60;99.90;;;;;;5018669;28;20205;-77
2023/06/27 10:52:40;;;;;;;3.65;1.40;;;22.90;99.90;;;;;;5035985;28;20166;-77
2023/06/27 10:55:18;;;;;;;2.22;1.30;;;23.20;99.90;;;;;;5035591;28;20189;-77
2023/06/27 10:57:48;;;;;;;2.90;1.50;;;23.00;99.90;;;;;;5035516;28;20178;-77
2023/06/27 11:00:15;;;;;;;2.85;1.30;;;23.00;99.90;;;;;;5035462;28;20178;-77
2023/06/27 11:02:45;;;;;;;1.83;1.50;;;23.20;99.90;;;;;;5017116;28;20185;-79
2023/06/27 11:05:16;;;;;;;2.85;1.50;;;23.20;99.90;;;;;;5033937;28;20213;-79
2023/06/27 11:07:57;;;;;;;2.25;1.35;;;23.30;99.90;;;;;;5036451;28;20245;-79
2023/06/27 11:10:25;;;;;;;3.85;1.42;;;23.30;99.90;;;;;;5018423;28;20197;-79
2023/06/27 11:13:11;;;;;;;2.40;1.48;;;23.20;99.90;;;;;;5018705;28;20178;-79
2023/06/27 11:15:37;;;;;;;2.25;1.30;;;22.80;99.90;;;;;;5035574;28;20193;-79
2023/06/27 11:18:05;;;;;;;1.73;1.40;;;22.50;99.90;;;;;;5036209;28;20177;-79
2023/06/27 11:20:31;;;;;;;1.65;1.40;;;22.20;99.90;;;;;;5035488;28;20194;-79
2023/06/27 11:23:00;;;;;;;3.08;1.30;;;22.40;99.90;;;;;;5035647;28;20228;-79
2023/06/27 11:25:26;;;;;;;2.40;1.55;;;22.40;99.90;;;;;;5035730;28;20236;-79
2023/06/27 11:27:58;;;;;;;3.55;1.40;;;22.50;99.90;;;;;;5035588;28;20170;-79
2023/06/27 11:30:28;;;;;;;2.97;1.40;;;22.50;99.90;;;;;;5035272;28;20228;-79
2023/06/27 11:32:57;;;;;;;2.40;1.50;;;22.80;99.90;;;;;;5035447;28;20197;-79
2023/06/27 11:35:23;;;;;;;2.05;1.30;;;23.00;99.90;;;;;;5017648;28;20198;-79
2023/06/27 11:37:54;;;;;;;2.63;1.55;;;22.90;99.90;;;;;;5035549;28;20265;-80
2023/06/27 11:40:21;;;;;;;4.15;1.60;;;22.80;99.90;;;;;;5035131;28;20177;-79
2023/06/27 11:42:47;;;;;;;2.88;1.52;;;22.70;99.90;;;;;;5017937;28;20174;-80
2023/06/27 11:45:12;;;;;;;2.95;1.33;;;22.70;99.90;;;;;;5017673;28;20209;-79
2023/06/27 11:47:39;;;;;;;2.22;1.50;;;22.70;99.90;;;;;;5034941;28;20163;-79
2023/06/27 11:50:08;;;;;;;2.30;1.50;;;22.50;99.90;;;;;;5017139;28;20625;-78
2023/06/27 11:52:35;;;;;;;2.60;1.50;;;22.40;99.90;;;;;;5016721;28;20178;-78
2023/06/27 11:55:03;;;;;;;4.70;1.70;;;22.20;99.90;;;;;;5034447;28;20174;-78
2023/06/27 11:57:48;;;;;;;1.73;1.40;;;22.10;99.90;;;;;;5016878;28;20205;-78
2023/06/27 12:00:25;;;;;;;3.30;1.50;;;22.00;99.90;;;;;;5034365;28;20257;-78
2023/06/27 12:02:52;;;;;;;4.10;1.60;;;21.90;99.90;;;;;;5017161;28;20167;-78
2023/06/27 12:05:26;;;;;;;3.78;1.45;;;21.90;99.90;;;;;;5034417;28;20234;-79
2023/06/27 12:08:01;;;;;;;2.42;1.48;;;21.80;99.90;;;;;;5016557;28;20186;-78
2023/06/27 12:10:30;;;;;;;1.95;1.38;;;21.80;99.90;;;;;;5016408;28;20208;-78
2023/06/27 12:12:56;;;;;;;2.83;1.70;;;22.20;99.90;;;;;;5034027;28;20182;-78
2023/06/27 12:15:22;;;;;;;2.10;1.52;;;22.60;99.90;;;;;;5034120;28;20205;-78
2023/06/27 12:18:01;;;;;;;2.33;1.60;;;22.60;99.90;;;;;;5016028;28;20210;-78
2023/06/27 12:20:40;;;;;;;2.90;1.50;;;22.70;99.90;;;;;;5015748;28;20174;-78
2023/06/27 12:23:06;;;;;;;3.67;1.80;;;22.70;99.90;;;;;;5015992;28;20175;-78
2023/06/27 12:25:32;;;;;;;1.75;1.50;;;22.50;99.90;;;;;;5033551;28;20205;-78
2023/06/27 12:27:57;;;;;;;2.97;1.65;;;22.20;99.90;;;;;;5015441;28;20182;-78
2023/06/27 12:30:23;;;;;;;2.38;1.67;;;21.80;99.90;;;;;;5015411;28;20215;-78
2023/06/27 12:32:48;;;;;;;2.28;1.40;;;21.40;99.90;;;;;;5033547;28;20167;-78
2023/06/27 12:35:17;;;;;;;7.35;2.05;;;21.00;1.00;;;;;;5015928;28;20229;-77
2023/06/27 12:37:47;;;;;;;5.28;1.90;;;20.50;1.00;;;;;;5015936;28;20178;-78
2023/06/27 12:40:16;;;;;;;2.78;1.70;;;20.20;1.00;;;;;;5016088;28;20185;-78
2023/06/27 12:42:43;;;;;;;2.42;1.80;;;20.20;1.00;;;;;;5034007;28;20178;-80
2023/06/27 12:45:10;;;;;;;2.00;1.60;;;20.40;99.90;;;;;;5034128;28;20209;-78
2023/06/27 12:47:36;;;;;;;2.78;1.63;;;20.70;1.00;;;;;;5033499;28;20263;-80
2023/06/27 12:50:03;;;;;;;2.53;1.70;;;20.80;1.00;;;;;;5035017;28;20253;-82
2023/06/27 12:52:29;;;;;;;2.75;1.90;;;21.20;1.00;;;;;;5017824;28;20224;-80